Terminal Aerodrome Forecast
Issued by NWS

Current Version | Previous Version | Text Only | Print | Product List | Glossary On
Versions: 1 2 3 4 5 6 7 8 9 10 11 12 13 14 15 16 17 18 19 20 21 22 23 24 25 26 27 28
000
FTUS46 KMTR 040300 AAA
TAFSFO
TAF AMD
KSFO 040302Z 0403/0506 28011KT P6SM FEW200
     FM040700 27004KT P6SM FEW200
     FM041400 09003KT P6SM FEW200
     FM042100 29006KT P6SM FEW200=

USA.gov is the U.S. government's official web portal to all federal, state and local government web resources and services.